sensor_id;sensor_type;location;lat;lon;timestamp;temperature;humidity
20831;DHT22;10576;53.556;9.868;2022-11-20T00:01:22;2.50;99.90
20831;DHT22;10576;53.556;9.868;2022-11-20T00:03:48;2.40;99.90
20831;DHT22;10576;53.556;9.868;2022-11-20T00:06:16;2.40;99.90
20831;DHT22;10576;53.556;9.868;2022-11-20T00:08:42;2.50;99.90
20831;DHT22;10576;53.556;9.868;2022-11-20T00:11:13;2.50;99.90
20831;DHT22;10576;53.556;9.868;2022-11-20T00:13:39;2.50;99.90
20831;DHT22;10576;53.556;9.868;2022-11-20T00:16:07;2.50;99.90
20831;DHT22;10576;53.556;9.868;2022-11-20T00:18:34;2.50;99.90
20831;DHT22;10576;53.556;9.868;2022-11-20T00:21:04;2.50;99.90
20831;DHT22;10576;53.556;9.868;2022-11-20T00:23:31;2.50;99.90
20831;DHT22;10576;53.556;9.868;2022-11-20T00:26:00;2.60;99.90
20831;DHT22;10576;53.556;9.868;2022-11-20T00:28:26;2.40;99.90
20831;DHT22;10576;53.556;9.868;2022-11-20T00:30:51;2.40;99.90
20831;DHT22;10576;53.556;9.868;2022-11-20T00:33:17;2.50;99.90
20831;DHT22;10576;53.556;9.868;2022-11-20T00:35:42;2.30;99.90
20831;DHT22;10576;53.556;9.868;2022-11-20T00:38:08;2.40;99.90
20831;DHT22;10576;53.556;9.868;2022-11-20T00:40:33;2.40;99.90
20831;DHT22;10576;53.556;9.868;2022-11-20T00:42:59;2.30;99.90
20831;DHT22;10576;53.556;9.868;2022-11-20T00:45:25;2.40;99.90
20831;DHT22;10576;53.556;9.868;2022-11-20T00:47:50;2.40;99.90
20831;DHT22;10576;53.556;9.868;2022-11-20T00:50:16;2.50;99.90
20831;DHT22;10576;53.556;9.868;2022-11-20T00:52:41;2.50;99.90
20831;DHT22;10576;53.556;9.868;2022-11-20T00:55:07;2.40;99.90
20831;DHT22;10576;53.556;9.868;2022-11-20T00:57:32;2.40;99.90
20831;DHT22;10576;53.556;9.868;2022-11-20T00:59:58;2.40;99.90
20831;DHT22;10576;53.556;9.868;2022-11-20T01:02:24;2.40;99.90
20831;DHT22;10576;53.556;9.868;2022-11-20T01:04:49;2.40;99.90
20831;DHT22;10576;53.556;9.868;2022-11-20T01:07:15;2.40;99.90
20831;DHT22;10576;53.556;9.868;2022-11-20T01:09:40;2.40;99.90
20831;DHT22;10576;53.556;9.868;2022-11-20T01:12:06;2.40;99.90
20831;DHT22;10576;53.556;9.868;2022-11-20T01:14:31;2.30;99.90
20831;DHT22;10576;53.556;9.868;2022-11-20T01:16:57;2.40;99.90
20831;DHT22;10576;53.556;9.868;2022-11-20T01:19:23;2.50;99.90
20831;DHT22;10576;53.556;9.868;2022-11-20T01:21:51;2.50;99.90
20831;DHT22;10576;53.556;9.868;2022-11-20T01:24:19;2.50;99.90
20831;DHT22;10576;53.556;9.868;2022-11-20T01:26:46;2.50;99.90
20831;DHT22;10576;53.556;9.868;2022-11-20T01:29:21;2.60;99.90
20831;DHT22;10576;53.556;9.868;2022-11-20T01:31:47;2.70;99.90
20831;DHT22;10576;53.556;9.868;2022-11-20T01:34:15;2.60;99.90
20831;DHT22;10576;53.556;9.868;2022-11-20T01:36:42;2.50;99.90
20831;DHT22;10576;53.556;9.868;2022-11-20T01:39:26;2.50;99.90
20831;DHT22;10576;53.556;9.868;2022-11-20T01:41:54;2.50;99.90
20831;DHT22;10576;53.556;9.868;2022-11-20T01:50:06;2.60;99.90
20831;DHT22;10576;53.556;9.868;2022-11-20T01:52:38;2.50;99.90
20831;DHT22;10576;53.556;9.868;2022-11-20T01:55:15;2.60;99.90
20831;DHT22;10576;53.556;9.868;2022-11-20T01:57:44;2.60;99.90
20831;DHT22;10576;53.556;9.868;2022-11-20T02:00:13;2.60;99.90
20831;DHT22;10576;53.556;9.868;2022-11-20T02:02:42;2.60;99.90
20831;DHT22;10576;53.556;9.868;2022-11-20T02:07:52;2.50;99.90
20831;DHT22;10576;53.556;9.868;2022-11-20T02:10:19;2.60;99.90
20831;DHT22;10576;53.556;9.868;2022-11-20T02:12:45;2.60;99.90
20831;DHT22;10576;53.556;9.868;2022-11-20T02:15:31;2.60;99.90
20831;DHT22;10576;53.556;9.868;2022-11-20T02:17:57;2.60;99.90
20831;DHT22;10576;53.556;9.868;2022-11-20T02:20:23;2.40;99.90
20831;DHT22;10576;53.556;9.868;2022-11-20T02:25:20;2.30;99.90
20831;DHT22;10576;53.556;9.868;2022-11-20T02:27:46;2.40;99.90
20831;DHT22;10576;53.556;9.868;2022-11-20T02:30:12;2.40;99.90
20831;DHT22;10576;53.556;9.868;2022-11-20T02:32:39;2.40;99.90
20831;DHT22;10576;53.556;9.868;2022-11-20T02:35:09;2.40;99.90
20831;DHT22;10576;53.556;9.868;2022-11-20T02:37:38;2.50;99.90
20831;DHT22;10576;53.556;9.868;2022-11-20T02:40:05;2.40;99.90
20831;DHT22;10576;53.556;9.868;2022-11-20T02:42:31;2.40;99.90
20831;DHT22;10576;53.556;9.868;2022-11-20T02:44:56;2.40;99.90
20831;DHT22;10576;53.556;9.868;2022-11-20T02:47:22;2.40;99.90
20831;DHT22;10576;53.556;9.868;2022-11-20T02:49:47;2.40;99.90
20831;DHT22;10576;53.556;9.868;2022-11-20T02:52:13;2.40;99.90
20831;DHT22;10576;53.556;9.868;2022-11-20T02:54:38;2.40;99.90
20831;DHT22;10576;53.556;9.868;2022-11-20T02:57:04;2.30;99.90
20831;DHT22;10576;53.556;9.868;2022-11-20T02:59:29;2.30;99.90
20831;DHT22;10576;53.556;9.868;2022-11-20T03:01:55;2.40;99.90
20831;DHT22;10576;53.556;9.868;2022-11-20T03:04:21;2.40;99.90
20831;DHT22;10576;53.556;9.868;2022-11-20T03:06:46;2.40;99.90
20831;DHT22;10576;53.556;9.868;2022-11-20T03:09:12;2.30;99.90
20831;DHT22;10576;53.556;9.868;2022-11-20T03:11:38;2.40;99.90
20831;DHT22;10576;53.556;9.868;2022-11-20T03:14:04;2.40;99.90
20831;DHT22;10576;53.556;9.868;2022-11-20T03:16:31;2.40;99.90
20831;DHT22;10576;53.556;9.868;2022-11-20T03:18:57;2.50;99.90
20831;DHT22;10576;53.556;9.868;2022-11-20T03:21:23;2.40;99.90
20831;DHT22;10576;53.556;9.868;2022-11-20T03:23:49;2.30;99.90
20831;DHT22;10576;53.556;9.868;2022-11-20T03:26:17;2.40;99.90
20831;DHT22;10576;53.556;9.868;2022-11-20T03:28:52;2.40;99.90
20831;DHT22;10576;53.556;9.868;2022-11-20T03:31:20;2.70;99.90
20831;DHT22;10576;53.556;9.868;2022-11-20T03:33:46;2.30;99.90
20831;DHT22;10576;53.556;9.868;2022-11-20T03:36:14;2.30;99.90
20831;DHT22;10576;53.556;9.868;2022-11-20T03:38:41;2.30;99.90
20831;DHT22;10576;53.556;9.868;2022-11-20T03:41:08;2.40;99.90
20831;DHT22;10576;53.556;9.868;2022-11-20T03:43:34;2.40;99.90
20831;DHT22;10576;53.556;9.868;2022-11-20T03:46:00;2.40;99.90
20831;DHT22;10576;53.556;9.868;2022-11-20T03:48:27;2.40;99.90
20831;DHT22;10576;53.556;9.868;2022-11-20T03:51:05;2.40;99.90
20831;DHT22;10576;53.556;9.868;2022-11-20T03:53:31;2.40;99.90
20831;DHT22;10576;53.556;9.868;2022-11-20T03:55:56;2.30;99.90
20831;DHT22;10576;53.556;9.868;2022-11-20T03:58:22;2.40;99.90
20831;DHT22;10576;53.556;9.868;2022-11-20T04:00:48;2.40;99.90
20831;DHT22;10576;53.556;9.868;2022-11-20T04:03:13;2.30;99.90
20831;DHT22;10576;53.556;9.868;2022-11-20T04:05:39;2.30;99.90
20831;DHT22;10576;53.556;9.868;2022-11-20T04:08:05;2.40;99.90
20831;DHT22;10576;53.556;9.868;2022-11-20T04:10:30;2.40;99.90
20831;DHT22;10576;53.556;9.868;2022-11-20T04:12:56;2.30;99.90
20831;DHT22;10576;53.556;9.868;2022-11-20T04:17:47;2.30;99.90
20831;DHT22;10576;53.556;9.868;2022-11-20T04:20:13;2.20;99.90
20831;DHT22;10576;53.556;9.868;2022-11-20T04:22:39;2.20;99.90
20831;DHT22;10576;53.556;9.868;2022-11-20T04:25:04;2.30;99.90
20831;DHT22;10576;53.556;9.868;2022-11-20T04:27:30;2.20;99.90
20831;DHT22;10576;53.556;9.868;2022-11-20T04:29:56;3.20;99.90
20831;DHT22;10576;53.556;9.868;2022-11-20T04:32:21;2.20;99.90
20831;DHT22;10576;53.556;9.868;2022-11-20T04:34:47;2.20;99.90
20831;DHT22;10576;53.556;9.868;2022-11-20T04:37:12;4.20;99.90
20831;DHT22;10576;53.556;9.868;2022-11-20T04:39:38;2.20;99.90
20831;DHT22;10576;53.556;9.868;2022-11-20T04:42:04;2.20;99.90
20831;DHT22;10576;53.556;9.868;2022-11-20T04:44:48;2.20;99.90
20831;DHT22;10576;53.556;9.868;2022-11-20T04:47:13;2.20;99.90
20831;DHT22;10576;53.556;9.868;2022-11-20T04:49:39;2.20;99.90
20831;DHT22;10576;53.556;9.868;2022-11-20T04:52:04;2.20;99.90
20831;DHT22;10576;53.556;9.868;2022-11-20T04:54:30;2.20;99.90
20831;DHT22;10576;53.556;9.868;2022-11-20T04:56:55;2.20;99.90
20831;DHT22;10576;53.556;9.868;2022-11-20T04:59:21;2.20;99.90
20831;DHT22;10576;53.556;9.868;2022-11-20T05:01:46;2.10;99.90
20831;DHT22;10576;53.556;9.868;2022-11-20T05:04:12;2.10;99.90
20831;DHT22;10576;53.556;9.868;2022-11-20T05:06:38;2.00;99.90
20831;DHT22;10576;53.556;9.868;2022-11-20T05:09:03;2.00;99.90
20831;DHT22;10576;53.556;9.868;2022-11-20T05:11:29;2.00;99.90
20831;DHT22;10576;53.556;9.868;2022-11-20T05:13:54;2.00;99.90
20831;DHT22;10576;53.556;9.868;2022-11-20T05:16:22;2.00;99.90
20831;DHT22;10576;53.556;9.868;2022-11-20T05:18:49;1.90;99.90
20831;DHT22;10576;53.556;9.868;2022-11-20T05:21:15;1.90;99.90
20831;DHT22;10576;53.556;9.868;2022-11-20T05:23:42;1.90;99.90
20831;DHT22;10576;53.556;9.868;2022-11-20T05:26:13;1.80;99.90
20831;DHT22;10576;53.556;9.868;2022-11-20T05:28:39;1.70;99.90
20831;DHT22;10576;53.556;9.868;2022-11-20T05:31:18;1.70;99.90
20831;DHT22;10576;53.556;9.868;2022-11-20T05:33:45;1.80;99.90
20831;DHT22;10576;53.556;9.868;2022-11-20T05:36:12;1.80;99.90
20831;DHT22;10576;53.556;9.868;2022-11-20T05:38:39;1.90;99.90
20831;DHT22;10576;53.556;9.868;2022-11-20T05:41:05;1.90;99.90
20831;DHT22;10576;53.556;9.868;2022-11-20T05:43:35;1.80;99.90
20831;DHT22;10576;53.556;9.868;2022-11-20T05:46:01;1.80;99.90
20831;DHT22;10576;53.556;9.868;2022-11-20T05:48:27;1.80;99.90
20831;DHT22;10576;53.556;9.868;2022-11-20T05:50:53;1.80;99.90
20831;DHT22;10576;53.556;9.868;2022-11-20T05:53:18;1.80;99.90
20831;DHT22;10576;53.556;9.868;2022-11-20T05:55:44;1.90;99.90
20831;DHT22;10576;53.556;9.868;2022-11-20T05:58:09;1.90;99.90
20831;DHT22;10576;53.556;9.868;2022-11-20T06:00:35;1.90;99.90
20831;DHT22;10576;53.556;9.868;2022-11-20T06:03:01;1.80;99.90
20831;DHT22;10576;53.556;9.868;2022-11-20T06:05:26;1.80;99.90
20831;DHT22;10576;53.556;9.868;2022-11-20T06:07:52;1.90;99.90
20831;DHT22;10576;53.556;9.868;2022-11-20T06:10:18;1.90;99.90
20831;DHT22;10576;53.556;9.868;2022-11-20T06:12:43;1.90;99.90
20831;DHT22;10576;53.556;9.868;2022-11-20T06:15:09;1.80;99.90
20831;DHT22;10576;53.556;9.868;2022-11-20T06:17:35;1.80;99.90
20831;DHT22;10576;53.556;9.868;2022-11-20T06:20:00;1.80;99.90
20831;DHT22;10576;53.556;9.868;2022-11-20T06:22:26;1.80;99.90
20831;DHT22;10576;53.556;9.868;2022-11-20T06:24:52;1.80;99.90
20831;DHT22;10576;53.556;9.868;2022-11-20T06:27:17;1.80;99.90
20831;DHT22;10576;53.556;9.868;2022-11-20T06:29:43;1.90;99.90
20831;DHT22;10576;53.556;9.868;2022-11-20T06:32:09;1.80;99.90
20831;DHT22;10576;53.556;9.868;2022-11-20T06:34:34;1.80;99.90
20831;DHT22;10576;53.556;9.868;2022-11-20T06:37:00;1.80;99.90
20831;DHT22;10576;53.556;9.868;2022-11-20T06:39:26;1.80;99.90
20831;DHT22;10576;53.556;9.868;2022-11-20T06:41:51;1.80;99.90
20831;DHT22;10576;53.556;9.868;2022-11-20T06:44:17;1.80;99.90
20831;DHT22;10576;53.556;9.868;2022-11-20T06:46:42;1.80;99.90
20831;DHT22;10576;53.556;9.868;2022-11-20T06:49:08;1.80;99.90
20831;DHT22;10576;53.556;9.868;2022-11-20T06:51:33;1.70;99.90
20831;DHT22;10576;53.556;9.868;2022-11-20T06:53:59;1.70;99.90
20831;DHT22;10576;53.556;9.868;2022-11-20T06:56:26;1.70;99.90
20831;DHT22;10576;53.556;9.868;2022-11-20T06:58:52;1.70;99.90
20831;DHT22;10576;53.556;9.868;2022-11-20T07:01:17;1.60;99.90
20831;DHT22;10576;53.556;9.868;2022-11-20T07:03:43;1.60;99.90
20831;DHT22;10576;53.556;9.868;2022-11-20T07:06:09;1.60;99.90
20831;DHT22;10576;53.556;9.868;2022-11-20T07:08:35;1.60;99.90
20831;DHT22;10576;53.556;9.868;2022-11-20T07:11:02;1.60;99.90
20831;DHT22;10576;53.556;9.868;2022-11-20T07:13:29;1.60;99.90
20831;DHT22;10576;53.556;9.868;2022-11-20T07:15:58;1.60;99.90
20831;DHT22;10576;53.556;9.868;2022-11-20T07:18:24;1.50;99.90
20831;DHT22;10576;53.556;9.868;2022-11-20T07:20:49;1.60;99.90
20831;DHT22;10576;53.556;9.868;2022-11-20T07:23:15;1.50;99.90
20831;DHT22;10576;53.556;9.868;2022-11-20T07:25:41;1.50;99.90
20831;DHT22;10576;53.556;9.868;2022-11-20T07:28:06;1.60;99.90
20831;DHT22;10576;53.556;9.868;2022-11-20T07:32:58;1.50;99.90
20831;DHT22;10576;53.556;9.868;2022-11-20T07:35:24;1.50;99.90
20831;DHT22;10576;53.556;9.868;2022-11-20T07:37:50;1.50;99.90
20831;DHT22;10576;53.556;9.868;2022-11-20T07:40:16;1.50;99.90
20831;DHT22;10576;53.556;9.868;2022-11-20T07:45:15;1.60;99.90
20831;DHT22;10576;53.556;9.868;2022-11-20T07:47:41;1.70;99.90
20831;DHT22;10576;53.556;9.868;2022-11-20T07:50:07;1.80;99.90
20831;DHT22;10576;53.556;9.868;2022-11-20T07:52:32;1.90;99.90
20831;DHT22;10576;53.556;9.868;2022-11-20T07:54:58;2.00;99.90
20831;DHT22;10576;53.556;9.868;2022-11-20T07:57:24;2.10;99.90
20831;DHT22;10576;53.556;9.868;2022-11-20T07:59:49;2.20;99.90
20831;DHT22;10576;53.556;9.868;2022-11-20T08:02:15;2.00;99.90
20831;DHT22;10576;53.556;9.868;2022-11-20T08:04:40;2.00;99.90
20831;DHT22;10576;53.556;9.868;2022-11-20T08:07:06;2.10;99.90
20831;DHT22;10576;53.556;9.868;2022-11-20T08:09:31;2.20;99.90
20831;DHT22;10576;53.556;9.868;2022-11-20T08:11:58;2.10;99.90
20831;DHT22;10576;53.556;9.868;2022-11-20T08:14:49;2.20;99.90
20831;DHT22;10576;53.556;9.868;2022-11-20T08:17:15;2.20;99.90
20831;DHT22;10576;53.556;9.868;2022-11-20T08:19:41;2.10;99.90
20831;DHT22;10576;53.556;9.868;2022-11-20T08:22:06;2.20;99.90
20831;DHT22;10576;53.556;9.868;2022-11-20T08:24:32;2.20;99.90
20831;DHT22;10576;53.556;9.868;2022-11-20T08:26:58;2.00;99.90
20831;DHT22;10576;53.556;9.868;2022-11-20T08:29:25;1.90;99.90
20831;DHT22;10576;53.556;9.868;2022-11-20T08:31:51;2.10;99.90
20831;DHT22;10576;53.556;9.868;2022-11-20T08:34:17;1.40;99.90
20831;DHT22;10576;53.556;9.868;2022-11-20T08:36:42;2.20;99.90
20831;DHT22;10576;53.556;9.868;2022-11-20T08:39:10;2.30;99.90
20831;DHT22;10576;53.556;9.868;2022-11-20T08:41:36;2.30;99.90
20831;DHT22;10576;53.556;9.868;2022-11-20T08:44:03;2.50;99.90
20831;DHT22;10576;53.556;9.868;2022-11-20T08:46:40;2.50;99.90
20831;DHT22;10576;53.556;9.868;2022-11-20T08:49:11;2.50;99.90
20831;DHT22;10576;53.556;9.868;2022-11-20T08:51:37;2.50;99.90
20831;DHT22;10576;53.556;9.868;2022-11-20T08:54:04;2.50;99.90
20831;DHT22;10576;53.556;9.868;2022-11-20T08:56:30;2.50;99.90
20831;DHT22;10576;53.556;9.868;2022-11-20T08:58:55;2.50;99.90
20831;DHT22;10576;53.556;9.868;2022-11-20T09:01:22;2.60;99.90
20831;DHT22;10576;53.556;9.868;2022-11-20T09:03:49;1.00;99.90
20831;DHT22;10576;53.556;9.868;2022-11-20T09:06:15;4.20;99.90
20831;DHT22;10576;53.556;9.868;2022-11-20T09:08:41;2.70;99.90
20831;DHT22;10576;53.556;9.868;2022-11-20T09:11:07;2.70;99.90
20831;DHT22;10576;53.556;9.868;2022-11-20T09:13:34;2.90;99.90
20831;DHT22;10576;53.556;9.868;2022-11-20T09:16:03;3.00;99.90
20831;DHT22;10576;53.556;9.868;2022-11-20T09:18:29;3.00;99.90
20831;DHT22;10576;53.556;9.868;2022-11-20T09:21:01;3.00;99.90
20831;DHT22;10576;53.556;9.868;2022-11-20T09:23:27;3.20;99.90
20831;DHT22;10576;53.556;9.868;2022-11-20T09:25:55;3.20;99.90
20831;DHT22;10576;53.556;9.868;2022-11-20T09:28:25;3.40;99.90
20831;DHT22;10576;53.556;9.868;2022-11-20T09:30:50;3.30;99.90
20831;DHT22;10576;53.556;9.868;2022-11-20T09:33:17;3.60;99.90
20831;DHT22;10576;53.556;9.868;2022-11-20T09:35:43;3.50;99.90
20831;DHT22;10576;53.556;9.868;2022-11-20T09:38:09;3.60;99.90
20831;DHT22;10576;53.556;9.868;2022-11-20T09:40:38;3.70;99.90
20831;DHT22;10576;53.556;9.868;2022-11-20T09:46:07;3.60;99.90
20831;DHT22;10576;53.556;9.868;2022-11-20T09:48:39;3.50;99.90
20831;DHT22;10576;53.556;9.868;2022-11-20T09:54:10;3.50;99.90
20831;DHT22;10576;53.556;9.868;2022-11-20T09:56:42;3.60;99.90
20831;DHT22;10576;53.556;9.868;2022-11-20T09:59:21;3.50;99.90
20831;DHT22;10576;53.556;9.868;2022-11-20T10:01:48;3.50;99.90
20831;DHT22;10576;53.556;9.868;2022-11-20T10:04:17;3.50;99.90
20831;DHT22;10576;53.556;9.868;2022-11-20T10:09:40;3.80;99.90
20831;DHT22;10576;53.556;9.868;2022-11-20T10:20:14;3.80;99.90
20831;DHT22;10576;53.556;9.868;2022-11-20T10:22:50;4.10;99.90
20831;DHT22;10576;53.556;9.868;2022-11-20T10:25:24;4.10;99.90
20831;DHT22;10576;53.556;9.868;2022-11-20T10:30:45;4.30;99.90
20831;DHT22;10576;53.556;9.868;2022-11-20T10:33:21;4.00;99.90
20831;DHT22;10576;53.556;9.868;2022-11-20T10:36:16;4.20;99.90
20831;DHT22;10576;53.556;9.868;2022-11-20T10:38:54;4.30;99.90
20831;DHT22;10576;53.556;9.868;2022-11-20T10:41:41;4.30;99.90
20831;DHT22;10576;53.556;9.868;2022-11-20T10:44:14;4.20;99.90
20831;DHT22;10576;53.556;9.868;2022-11-20T10:47:00;4.10;99.90
20831;DHT22;10576;53.556;9.868;2022-11-20T10:49:26;4.10;99.90
20831;DHT22;10576;53.556;9.868;2022-11-20T11:00:14;4.10;99.90
20831;DHT22;10576;53.556;9.868;2022-11-20T11:02:49;4.20;99.90
20831;DHT22;10576;53.556;9.868;2022-11-20T11:07:56;4.40;99.90
20831;DHT22;10576;53.556;9.868;2022-11-20T11:10:44;4.40;99.90
20831;DHT22;10576;53.556;9.868;2022-11-20T11:13:26;4.50;99.90
20831;DHT22;10576;53.556;9.868;2022-11-20T11:15:52;4.30;99.90
20831;DHT22;10576;53.556;9.868;2022-11-20T11:18:28;4.20;99.90
20831;DHT22;10576;53.556;9.868;2022-11-20T11:20:56;4.30;99.90
20831;DHT22;10576;53.556;9.868;2022-11-20T11:23:40;4.20;99.90
20831;DHT22;10576;53.556;9.868;2022-11-20T11:26:23;4.30;99.90
20831;DHT22;10576;53.556;9.868;2022-11-20T11:29:03;4.30;99.90
20831;DHT22;10576;53.556;9.868;2022-11-20T11:31:34;4.30;99.90
20831;DHT22;10576;53.556;9.868;2022-11-20T11:34:08;5.10;99.90
20831;DHT22;10576;53.556;9.868;2022-11-20T11:36:36;4.50;99.90
20831;DHT22;10576;53.556;9.868;2022-11-20T11:39:03;4.60;99.90
20831;DHT22;10576;53.556;9.868;2022-11-20T11:41:34;4.60;99.90
20831;DHT22;10576;53.556;9.868;2022-11-20T11:44:17;4.20;99.90
20831;DHT22;10576;53.556;9.868;2022-11-20T11:47:02;4.10;99.90
20831;DHT22;10576;53.556;9.868;2022-11-20T11:49:29;4.10;99.90
20831;DHT22;10576;53.556;9.868;2022-11-20T11:52:15;4.10;99.90
20831;DHT22;10576;53.556;9.868;2022-11-20T11:54:47;4.20;99.90
20831;DHT22;10576;53.556;9.868;2022-11-20T11:57:24;3.90;99.90
20831;DHT22;10576;53.556;9.868;2022-11-20T12:02:38;3.90;99.90
20831;DHT22;10576;53.556;9.868;2022-11-20T12:08:04;4.00;99.90
20831;DHT22;10576;53.556;9.868;2022-11-20T12:10:48;4.00;99.90
20831;DHT22;10576;53.556;9.868;2022-11-20T12:13:31;3.80;99.90
20831;DHT22;10576;53.556;9.868;2022-11-20T12:15:58;3.90;99.90
20831;DHT22;10576;53.556;9.868;2022-11-20T12:18:23;3.80;99.90
20831;DHT22;10576;53.556;9.868;2022-11-20T12:23:57;4.00;99.90
20831;DHT22;10576;53.556;9.868;2022-11-20T12:29:22;4.30;99.90
20831;DHT22;10576;53.556;9.868;2022-11-20T12:35:00;4.40;99.90
20831;DHT22;10576;53.556;9.868;2022-11-20T12:37:37;4.30;99.90
20831;DHT22;10576;53.556;9.868;2022-11-20T12:43:19;4.40;99.90
20831;DHT22;10576;53.556;9.868;2022-11-20T12:51:25;4.20;99.90
20831;DHT22;10576;53.556;9.868;2022-11-20T12:59:49;4.00;99.90
20831;DHT22;10576;53.556;9.868;2022-11-20T13:02:25;4.00;99.90
20831;DHT22;10576;53.556;9.868;2022-11-20T13:07:35;4.10;99.90
20831;DHT22;10576;53.556;9.868;2022-11-20T13:10:02;3.90;99.90
20831;DHT22;10576;53.556;9.868;2022-11-20T13:12:47;3.70;99.90
20831;DHT22;10576;53.556;9.868;2022-11-20T13:18:03;3.80;99.90
20831;DHT22;10576;53.556;9.868;2022-11-20T13:20:30;4.00;99.90
20831;DHT22;10576;53.556;9.868;2022-11-20T13:22:57;3.80;99.90
20831;DHT22;10576;53.556;9.868;2022-11-20T13:25:28;4.00;99.90
20831;DHT22;10576;53.556;9.868;2022-11-20T13:27:56;4.00;99.90
20831;DHT22;10576;53.556;9.868;2022-11-20T13:30:27;4.00;99.90
20831;DHT22;10576;53.556;9.868;2022-11-20T13:35:40;4.30;99.90
20831;DHT22;10576;53.556;9.868;2022-11-20T13:38:11;4.20;99.90
20831;DHT22;10576;53.556;9.868;2022-11-20T13:40:49;4.10;99.90
20831;DHT22;10576;53.556;9.868;2022-11-20T13:43:34;4.10;99.90
20831;DHT22;10576;53.556;9.868;2022-11-20T13:46:08;4.10;99.90
20831;DHT22;10576;53.556;9.868;2022-11-20T13:48:41;4.10;99.90
20831;DHT22;10576;53.556;9.868;2022-11-20T13:59:59;4.10;99.90
20831;DHT22;10576;53.556;9.868;2022-11-20T14:02:28;4.10;99.90
20831;DHT22;10576;53.556;9.868;2022-11-20T14:04:57;4.10;99.90
20831;DHT22;10576;53.556;9.868;2022-11-20T14:07:27;4.20;99.90
20831;DHT22;10576;53.556;9.868;2022-11-20T14:09:57;4.10;99.90
20831;DHT22;10576;53.556;9.868;2022-11-20T14:12:28;4.00;99.90
20831;DHT22;10576;53.556;9.868;2022-11-20T14:14:54;4.00;99.90
20831;DHT22;10576;53.556;9.868;2022-11-20T14:20:00;3.70;99.90
20831;DHT22;10576;53.556;9.868;2022-11-20T14:22:27;4.00;99.90
20831;DHT22;10576;53.556;9.868;2022-11-20T14:27:39;4.00;99.90
20831;DHT22;10576;53.556;9.868;2022-11-20T14:30:13;3.90;99.90
20831;DHT22;10576;53.556;9.868;2022-11-20T14:32:39;3.90;99.90
20831;DHT22;10576;53.556;9.868;2022-11-20T14:35:16;3.90;99.90
20831;DHT22;10576;53.556;9.868;2022-11-20T14:37:44;3.90;99.90
20831;DHT22;10576;53.556;9.868;2022-11-20T14:40:30;4.00;99.90
20831;DHT22;10576;53.556;9.868;2022-11-20T14:42:58;3.80;99.90
20831;DHT22;10576;53.556;9.868;2022-11-20T14:45:25;3.70;99.90
20831;DHT22;10576;53.556;9.868;2022-11-20T14:47:54;3.80;99.90
20831;DHT22;10576;53.556;9.868;2022-11-20T14:50:25;3.80;99.90
20831;DHT22;10576;53.556;9.868;2022-11-20T14:53:00;3.80;99.90
20831;DHT22;10576;53.556;9.868;2022-11-20T14:55:36;3.70;99.90
20831;DHT22;10576;53.556;9.868;2022-11-20T14:58:23;3.80;99.90
20831;DHT22;10576;53.556;9.868;2022-11-20T15:01:01;3.70;99.90
20831;DHT22;10576;53.556;9.868;2022-11-20T15:05:57;3.70;99.90
20831;DHT22;10576;53.556;9.868;2022-11-20T15:08:23;3.70;99.90
20831;DHT22;10576;53.556;9.868;2022-11-20T15:10:50;3.70;99.90
20831;DHT22;10576;53.556;9.868;2022-11-20T15:13:37;3.70;99.90
20831;DHT22;10576;53.556;9.868;2022-11-20T15:16:13;3.50;99.90
20831;DHT22;10576;53.556;9.868;2022-11-20T15:18:40;3.50;99.90
20831;DHT22;10576;53.556;9.868;2022-11-20T15:21:18;3.50;99.90
20831;DHT22;10576;53.556;9.868;2022-11-20T15:23:44;3.50;99.90
20831;DHT22;10576;53.556;9.868;2022-11-20T15:26:11;3.60;99.90
20831;DHT22;10576;53.556;9.868;2022-11-20T15:28:44;3.60;99.90
20831;DHT22;10576;53.556;9.868;2022-11-20T15:31:15;3.50;99.90
20831;DHT22;10576;53.556;9.868;2022-11-20T15:33:41;3.40;99.90
20831;DHT22;10576;53.556;9.868;2022-11-20T15:36:08;3.30;99.90
20831;DHT22;10576;53.556;9.868;2022-11-20T15:38:33;3.30;99.90
20831;DHT22;10576;53.556;9.868;2022-11-20T15:40:59;3.40;99.90
20831;DHT22;10576;53.556;9.868;2022-11-20T15:43:25;3.30;99.90
20831;DHT22;10576;53.556;9.868;2022-11-20T15:45:55;3.40;99.90
20831;DHT22;10576;53.556;9.868;2022-11-20T15:48:29;3.40;99.90
20831;DHT22;10576;53.556;9.868;2022-11-20T15:53:27;3.30;99.90
20831;DHT22;10576;53.556;9.868;2022-11-20T15:55:53;3.30;99.90
20831;DHT22;10576;53.556;9.868;2022-11-20T15:58:19;3.40;99.90
20831;DHT22;10576;53.556;9.868;2022-11-20T16:00:44;3.30;99.90
20831;DHT22;10576;53.556;9.868;2022-11-20T16:03:14;3.40;99.90
20831;DHT22;10576;53.556;9.868;2022-11-20T16:05:40;3.40;99.90
20831;DHT22;10576;53.556;9.868;2022-11-20T16:08:06;3.40;99.90
20831;DHT22;10576;53.556;9.868;2022-11-20T16:10:32;3.50;99.90
20831;DHT22;10576;53.556;9.868;2022-11-20T16:12:58;3.40;99.90
20831;DHT22;10576;53.556;9.868;2022-11-20T16:15:42;3.40;99.90
20831;DHT22;10576;53.556;9.868;2022-11-20T16:18:13;3.40;99.90
20831;DHT22;10576;53.556;9.868;2022-11-20T16:20:39;3.30;99.90
20831;DHT22;10576;53.556;9.868;2022-11-20T16:23:06;3.20;99.90
20831;DHT22;10576;53.556;9.868;2022-11-20T16:25:32;3.20;99.90
20831;DHT22;10576;53.556;9.868;2022-11-20T16:27:58;3.20;99.90
20831;DHT22;10576;53.556;9.868;2022-11-20T16:30:24;3.20;99.90
20831;DHT22;10576;53.556;9.868;2022-11-20T16:32:50;3.20;99.90
20831;DHT22;10576;53.556;9.868;2022-11-20T16:35:15;3.20;99.90
20831;DHT22;10576;53.556;9.868;2022-11-20T16:37:41;3.10;99.90
20831;DHT22;10576;53.556;9.868;2022-11-20T16:40:09;3.10;99.90
20831;DHT22;10576;53.556;9.868;2022-11-20T16:42:36;3.00;99.90
20831;DHT22;10576;53.556;9.868;2022-11-20T16:45:03;3.00;99.90
20831;DHT22;10576;53.556;9.868;2022-11-20T16:47:33;2.90;99.90
20831;DHT22;10576;53.556;9.868;2022-11-20T16:49:59;3.00;99.90
20831;DHT22;10576;53.556;9.868;2022-11-20T16:52:24;3.00;99.90
20831;DHT22;10576;53.556;9.868;2022-11-20T16:54:50;2.90;99.90
20831;DHT22;10576;53.556;9.868;2022-11-20T16:57:16;2.90;99.90
20831;DHT22;10576;53.556;9.868;2022-11-20T16:59:41;2.80;99.90
20831;DHT22;10576;53.556;9.868;2022-11-20T17:02:08;2.70;99.90
20831;DHT22;10576;53.556;9.868;2022-11-20T17:04:35;2.70;99.90
20831;DHT22;10576;53.556;9.868;2022-11-20T17:07:01;2.70;99.90
20831;DHT22;10576;53.556;9.868;2022-11-20T17:09:27;2.60;99.90
20831;DHT22;10576;53.556;9.868;2022-11-20T17:11:53;2.70;99.90
20831;DHT22;10576;53.556;9.868;2022-11-20T17:14:19;2.70;99.90
20831;DHT22;10576;53.556;9.868;2022-11-20T17:16:45;2.70;99.90
20831;DHT22;10576;53.556;9.868;2022-11-20T17:19:11;2.70;99.90
20831;DHT22;10576;53.556;9.868;2022-11-20T17:21:37;2.60;99.90
20831;DHT22;10576;53.556;9.868;2022-11-20T17:24:06;2.50;99.90
20831;DHT22;10576;53.556;9.868;2022-11-20T17:26:32;2.40;99.90
20831;DHT22;10576;53.556;9.868;2022-11-20T17:31:27;2.50;99.90
20831;DHT22;10576;53.556;9.868;2022-11-20T17:33:53;2.40;99.90
20831;DHT22;10576;53.556;9.868;2022-11-20T17:36:19;2.30;99.90
20831;DHT22;10576;53.556;9.868;2022-11-20T17:38:45;2.30;99.90
20831;DHT22;10576;53.556;9.868;2022-11-20T17:41:13;2.20;99.90